sensor_id;sensor_type;location;lat;lon;timestamp;pressure;altitude;pressure_sealevel;temperature
78859;BMP280;68210;52.032;4.634;2023-10-19T00:01:58;99010.78;;;12.40
78859;BMP280;68210;52.032;4.634;2023-10-19T00:03:59;98997.50;;;12.45
78859;BMP280;68210;52.032;4.634;2023-10-19T00:06:03;98993.72;;;12.39
78859;BMP280;68210;52.032;4.634;2023-10-19T00:08:05;99003.38;;;12.40
78859;BMP280;68210;52.032;4.634;2023-10-19T00:10:18;98996.75;;;12.44
78859;BMP280;68210;52.032;4.634;2023-10-19T00:12:18;99004.97;;;12.38
78859;BMP280;68210;52.032;4.634;2023-10-19T00:14:22;98997.44;;;12.52
78859;BMP280;68210;52.032;4.634;2023-10-19T00:16:22;98999.34;;;12.55
78859;BMP280;68210;52.032;4.634;2023-10-19T00:18:24;98995.00;;;12.61
78859;BMP280;68210;52.032;4.634;2023-10-19T00:20:25;98995.06;;;12.57
78859;BMP280;68210;52.032;4.634;2023-10-19T00:22:37;98991.84;;;12.66
78859;BMP280;68210;52.032;4.634;2023-10-19T00:24:37;98994.91;;;12.71
78859;BMP280;68210;52.032;4.634;2023-10-19T00:26:41;99001.09;;;12.72
78859;BMP280;68210;52.032;4.634;2023-10-19T00:28:42;98999.56;;;12.71
78859;BMP280;68210;52.032;4.634;2023-10-19T00:30:49;99001.38;;;12.84
78859;BMP280;68210;52.032;4.634;2023-10-19T00:32:53;98996.34;;;12.82
78859;BMP280;68210;52.032;4.634;2023-10-19T00:34:54;98989.69;;;12.87
78859;BMP280;68210;52.032;4.634;2023-10-19T00:36:55;98998.16;;;12.92
78859;BMP280;68210;52.032;4.634;2023-10-19T00:38:56;99003.16;;;12.97
78859;BMP280;68210;52.032;4.634;2023-10-19T00:40:57;98993.34;;;13.03
78859;BMP280;68210;52.032;4.634;2023-10-19T00:43:13;98993.34;;;13.03
78859;BMP280;68210;52.032;4.634;2023-10-19T00:45:18;98993.72;;;13.05
78859;BMP280;68210;52.032;4.634;2023-10-19T00:47:26;98985.91;;;13.07
78859;BMP280;68210;52.032;4.634;2023-10-19T00:49:30;98990.91;;;13.12
78859;BMP280;68210;52.032;4.634;2023-10-19T00:51:39;98977.81;;;13.04
78859;BMP280;68210;52.032;4.634;2023-10-19T00:53:42;98976.66;;;13.01
78859;BMP280;68210;52.032;4.634;2023-10-19T00:55:43;98980.47;;;13.07
78859;BMP280;68210;52.032;4.634;2023-10-19T00:57:45;98968.78;;;13.10
78859;BMP280;68210;52.032;4.634;2023-10-19T00:59:48;98977.25;;;13.15
78859;BMP280;68210;52.032;4.634;2023-10-19T01:01:54;98978.94;;;13.06
78859;BMP280;68210;52.032;4.634;2023-10-19T01:04:04;98971.84;;;13.12
78859;BMP280;68210;52.032;4.634;2023-10-19T01:06:04;98979.50;;;13.20
78859;BMP280;68210;52.032;4.634;2023-10-19T01:08:14;98973.56;;;13.29
78859;BMP280;68210;52.032;4.634;2023-10-19T01:10:25;98974.03;;;13.24
78859;BMP280;68210;52.032;4.634;2023-10-19T01:12:29;98978.44;;;13.40
78859;BMP280;68210;52.032;4.634;2023-10-19T01:14:32;98988.38;;;13.50
78859;BMP280;68210;52.032;4.634;2023-10-19T01:16:32;98980.28;;;13.47
78859;BMP280;68210;52.032;4.634;2023-10-19T01:18:32;98979.06;;;13.51
78859;BMP280;68210;52.032;4.634;2023-10-19T01:20:33;98980.88;;;13.61
78859;BMP280;68210;52.032;4.634;2023-10-19T01:25:06;98972.63;;;13.65
78859;BMP280;68210;52.032;4.634;2023-10-19T01:27:10;98991.25;;;13.66
78859;BMP280;68210;52.032;4.634;2023-10-19T01:29:11;98974.00;;;13.76
78859;BMP280;68210;52.032;4.634;2023-10-19T01:31:26;98979.81;;;13.78
78859;BMP280;68210;52.032;4.634;2023-10-19T01:33:29;98979.34;;;13.83
78859;BMP280;68210;52.032;4.634;2023-10-19T01:35:31;98979.13;;;13.93
78859;BMP280;68210;52.032;4.634;2023-10-19T01:37:50;98976.63;;;14.05
78859;BMP280;68210;52.032;4.634;2023-10-19T01:39:50;98984.19;;;14.17
78859;BMP280;68210;52.032;4.634;2023-10-19T01:41:50;98964.53;;;14.29
78859;BMP280;68210;52.032;4.634;2023-10-19T01:43:52;98971.03;;;14.35
78859;BMP280;68210;52.032;4.634;2023-10-19T01:46:02;98973.50;;;14.49
78859;BMP280;68210;52.032;4.634;2023-10-19T01:48:07;98973.69;;;14.57
78859;BMP280;68210;52.032;4.634;2023-10-19T01:50:08;98970.00;;;14.67
78859;BMP280;68210;52.032;4.634;2023-10-19T01:52:19;98972.13;;;14.79
78859;BMP280;68210;52.032;4.634;2023-10-19T01:54:22;98967.75;;;14.82
78859;BMP280;68210;52.032;4.634;2023-10-19T01:56:24;98973.44;;;14.90
78859;BMP280;68210;52.032;4.634;2023-10-19T01:58:25;98967.22;;;15.06
78859;BMP280;68210;52.032;4.634;2023-10-19T02:00:25;98974.47;;;15.16
78859;BMP280;68210;52.032;4.634;2023-10-19T02:02:26;98957.31;;;15.15
78859;BMP280;68210;52.032;4.634;2023-10-19T02:04:26;98958.78;;;15.20
78859;BMP280;68210;52.032;4.634;2023-10-19T02:06:29;98964.00;;;15.30
78859;BMP280;68210;52.032;4.634;2023-10-19T02:08:32;98962.22;;;15.39
78859;BMP280;68210;52.032;4.634;2023-10-19T02:10:33;98951.06;;;15.50
78859;BMP280;68210;52.032;4.634;2023-10-19T02:12:34;98961.81;;;15.41
78859;BMP280;68210;52.032;4.634;2023-10-19T02:14:35;98960.19;;;15.43
78859;BMP280;68210;52.032;4.634;2023-10-19T02:16:35;98960.53;;;15.45
78859;BMP280;68210;52.032;4.634;2023-10-19T02:18:37;98950.97;;;15.53
78859;BMP280;68210;52.032;4.634;2023-10-19T02:20:38;98953.88;;;15.62
78859;BMP280;68210;52.032;4.634;2023-10-19T02:22:41;98957.81;;;15.61
78859;BMP280;68210;52.032;4.634;2023-10-19T02:24:42;98946.03;;;15.64
78859;BMP280;68210;52.032;4.634;2023-10-19T02:26:44;98941.94;;;15.72
78859;BMP280;68210;52.032;4.634;2023-10-19T02:28:44;98945.88;;;15.71
78859;BMP280;68210;52.032;4.634;2023-10-19T02:30:45;98946.72;;;15.68
78859;BMP280;68210;52.032;4.634;2023-10-19T02:32:45;98947.84;;;15.70
78859;BMP280;68210;52.032;4.634;2023-10-19T02:34:47;98938.78;;;15.73
78859;BMP280;68210;52.032;4.634;2023-10-19T02:36:48;98944.94;;;15.77
78859;BMP280;68210;52.032;4.634;2023-10-19T02:38:48;98932.47;;;15.76
78859;BMP280;68210;52.032;4.634;2023-10-19T02:40:48;98936.13;;;15.85
78859;BMP280;68210;52.032;4.634;2023-10-19T02:42:49;98936.13;;;15.85
78859;BMP280;68210;52.032;4.634;2023-10-19T02:44:53;98933.22;;;15.92
78859;BMP280;68210;52.032;4.634;2023-10-19T02:46:55;98936.81;;;15.89
78859;BMP280;68210;52.032;4.634;2023-10-19T02:49:02;98935.25;;;15.88
78859;BMP280;68210;52.032;4.634;2023-10-19T02:51:03;98933.03;;;15.83
78859;BMP280;68210;52.032;4.634;2023-10-19T02:53:11;98937.69;;;15.86
78859;BMP280;68210;52.032;4.634;2023-10-19T02:55:13;98931.25;;;15.93
78859;BMP280;68210;52.032;4.634;2023-10-19T02:57:16;98932.97;;;15.87
78859;BMP280;68210;52.032;4.634;2023-10-19T02:59:17;98935.78;;;15.83
78859;BMP280;68210;52.032;4.634;2023-10-19T03:01:22;98922.19;;;15.96
78859;BMP280;68210;52.032;4.634;2023-10-19T03:03:22;98927.50;;;16.03
78859;BMP280;68210;52.032;4.634;2023-10-19T03:05:23;98929.66;;;15.80
78859;BMP280;68210;52.032;4.634;2023-10-19T03:07:25;98934.69;;;15.81
78859;BMP280;68210;52.032;4.634;2023-10-19T03:09:25;98927.69;;;15.80
78859;BMP280;68210;52.032;4.634;2023-10-19T03:11:29;98926.25;;;15.76
78859;BMP280;68210;52.032;4.634;2023-10-19T03:13:30;98924.69;;;15.75
78859;BMP280;68210;52.032;4.634;2023-10-19T03:15:32;98925.56;;;15.72
78859;BMP280;68210;52.032;4.634;2023-10-19T03:17:33;98918.47;;;15.74
78859;BMP280;68210;52.032;4.634;2023-10-19T03:19:33;98915.88;;;15.83
78859;BMP280;68210;52.032;4.634;2023-10-19T03:21:35;98918.72;;;15.80
78859;BMP280;68210;52.032;4.634;2023-10-19T03:23:42;98930.50;;;15.77
78859;BMP280;68210;52.032;4.634;2023-10-19T03:25:43;98918.06;;;15.76
78859;BMP280;68210;52.032;4.634;2023-10-19T03:27:55;98917.59;;;15.77
78859;BMP280;68210;52.032;4.634;2023-10-19T03:29:56;98920.78;;;15.76
78859;BMP280;68210;52.032;4.634;2023-10-19T03:31:56;98915.31;;;15.76
78859;BMP280;68210;52.032;4.634;2023-10-19T03:33:56;98915.63;;;15.78
78859;BMP280;68210;52.032;4.634;2023-10-19T03:35:59;98910.63;;;15.76
78859;BMP280;68210;52.032;4.634;2023-10-19T03:37:59;98908.41;;;15.71
78859;BMP280;68210;52.032;4.634;2023-10-19T03:40:01;98907.69;;;15.67
78859;BMP280;68210;52.032;4.634;2023-10-19T03:42:07;98918.56;;;15.71
78859;BMP280;68210;52.032;4.634;2023-10-19T03:44:13;98907.63;;;15.71
78859;BMP280;68210;52.032;4.634;2023-10-19T03:46:24;98910.28;;;15.58
78859;BMP280;68210;52.032;4.634;2023-10-19T03:48:28;98909.34;;;15.65
78859;BMP280;68210;52.032;4.634;2023-10-19T03:50:35;98923.16;;;15.74
78859;BMP280;68210;52.032;4.634;2023-10-19T03:52:37;98919.06;;;15.66
78859;BMP280;68210;52.032;4.634;2023-10-19T03:54:38;98913.97;;;15.68
78859;BMP280;68210;52.032;4.634;2023-10-19T03:56:39;98913.34;;;15.60
78859;BMP280;68210;52.032;4.634;2023-10-19T03:58:39;98904.56;;;15.69
78859;BMP280;68210;52.032;4.634;2023-10-19T04:00:43;98901.41;;;15.70
78859;BMP280;68210;52.032;4.634;2023-10-19T04:02:44;98907.19;;;15.72
78859;BMP280;68210;52.032;4.634;2023-10-19T04:04:45;98905.16;;;15.76
78859;BMP280;68210;52.032;4.634;2023-10-19T04:06:48;98908.31;;;15.75
78859;BMP280;68210;52.032;4.634;2023-10-19T04:08:49;98897.38;;;15.75
78859;BMP280;68210;52.032;4.634;2023-10-19T04:10:51;98915.97;;;15.80
78859;BMP280;68210;52.032;4.634;2023-10-19T04:13:08;98911.19;;;15.83
78859;BMP280;68210;52.032;4.634;2023-10-19T04:15:12;98920.31;;;15.93
78859;BMP280;68210;52.032;4.634;2023-10-19T04:17:16;98915.72;;;15.90
78859;BMP280;68210;52.032;4.634;2023-10-19T04:19:21;98915.81;;;15.86
78859;BMP280;68210;52.032;4.634;2023-10-19T04:21:21;98924.25;;;15.92
78859;BMP280;68210;52.032;4.634;2023-10-19T04:23:22;98921.69;;;16.01
78859;BMP280;68210;52.032;4.634;2023-10-19T04:25:27;98920.22;;;15.96
78859;BMP280;68210;52.032;4.634;2023-10-19T04:27:27;98921.44;;;15.95
78859;BMP280;68210;52.032;4.634;2023-10-19T04:29:28;98927.06;;;15.88
78859;BMP280;68210;52.032;4.634;2023-10-19T04:31:29;98923.47;;;15.91
78859;BMP280;68210;52.032;4.634;2023-10-19T04:33:30;98928.63;;;15.89
78859;BMP280;68210;52.032;4.634;2023-10-19T04:35:32;98918.63;;;15.83
78859;BMP280;68210;52.032;4.634;2023-10-19T04:37:34;98917.59;;;15.77
78859;BMP280;68210;52.032;4.634;2023-10-19T04:39:34;98907.94;;;15.73
78859;BMP280;68210;52.032;4.634;2023-10-19T04:41:36;98909.84;;;15.60
78859;BMP280;68210;52.032;4.634;2023-10-19T04:43:37;98915.94;;;15.51
78859;BMP280;68210;52.032;4.634;2023-10-19T04:45:42;98922.31;;;15.45
78859;BMP280;68210;52.032;4.634;2023-10-19T04:47:44;98921.88;;;15.47
78859;BMP280;68210;52.032;4.634;2023-10-19T04:49:46;98914.47;;;15.47
78859;BMP280;68210;52.032;4.634;2023-10-19T04:51:46;98921.63;;;15.41
78859;BMP280;68210;52.032;4.634;2023-10-19T04:53:47;98913.09;;;15.39
78859;BMP280;68210;52.032;4.634;2023-10-19T04:55:47;98908.22;;;15.31
78859;BMP280;68210;52.032;4.634;2023-10-19T04:57:47;98917.41;;;15.21
78859;BMP280;68210;52.032;4.634;2023-10-19T04:59:49;98908.81;;;15.22
78859;BMP280;68210;52.032;4.634;2023-10-19T05:01:50;98912.66;;;15.25
78859;BMP280;68210;52.032;4.634;2023-10-19T05:03:50;98905.31;;;15.22
78859;BMP280;68210;52.032;4.634;2023-10-19T05:05:50;98920.59;;;15.20
78859;BMP280;68210;52.032;4.634;2023-10-19T05:07:51;98924.94;;;15.17
78859;BMP280;68210;52.032;4.634;2023-10-19T05:09:52;98925.69;;;15.18
78859;BMP280;68210;52.032;4.634;2023-10-19T05:11:53;98920.75;;;15.28
78859;BMP280;68210;52.032;4.634;2023-10-19T05:13:54;98928.34;;;15.21
78859;BMP280;68210;52.032;4.634;2023-10-19T05:15:55;98935.19;;;15.29
78859;BMP280;68210;52.032;4.634;2023-10-19T05:17:55;98934.41;;;15.28
78859;BMP280;68210;52.032;4.634;2023-10-19T05:19:56;98921.13;;;15.30
78859;BMP280;68210;52.032;4.634;2023-10-19T05:21:56;98936.13;;;15.38
78859;BMP280;68210;52.032;4.634;2023-10-19T05:23:57;98928.28;;;15.40
78859;BMP280;68210;52.032;4.634;2023-10-19T05:26:02;98930.41;;;15.33
78859;BMP280;68210;52.032;4.634;2023-10-19T05:28:05;98939.63;;;15.39
78859;BMP280;68210;52.032;4.634;2023-10-19T05:30:06;98930.69;;;15.38
78859;BMP280;68210;52.032;4.634;2023-10-19T05:32:10;98930.16;;;15.43
78859;BMP280;68210;52.032;4.634;2023-10-19T05:34:10;98930.94;;;15.44
78859;BMP280;68210;52.032;4.634;2023-10-19T05:36:11;98936.91;;;15.39
78859;BMP280;68210;52.032;4.634;2023-10-19T05:38:15;98927.75;;;15.29
78859;BMP280;68210;52.032;4.634;2023-10-19T05:40:16;98931.78;;;15.41
78859;BMP280;68210;52.032;4.634;2023-10-19T05:42:18;98924.09;;;15.36
78859;BMP280;68210;52.032;4.634;2023-10-19T05:44:18;98927.09;;;15.41
78859;BMP280;68210;52.032;4.634;2023-10-19T05:46:19;98932.88;;;15.43
78859;BMP280;68210;52.032;4.634;2023-10-19T05:48:22;98931.00;;;15.40
78859;BMP280;68210;52.032;4.634;2023-10-19T05:50:24;98933.41;;;15.38
78859;BMP280;68210;52.032;4.634;2023-10-19T05:52:25;98927.94;;;15.38
78859;BMP280;68210;52.032;4.634;2023-10-19T05:54:25;98924.69;;;15.27
78859;BMP280;68210;52.032;4.634;2023-10-19T05:56:25;98917.84;;;15.35
78859;BMP280;68210;52.032;4.634;2023-10-19T05:58:26;98933.16;;;15.33
78859;BMP280;68210;52.032;4.634;2023-10-19T06:00:26;98927.16;;;15.38
78859;BMP280;68210;52.032;4.634;2023-10-19T06:02:27;98929.22;;;15.50
78859;BMP280;68210;52.032;4.634;2023-10-19T06:04:27;98924.03;;;15.55
78859;BMP280;68210;52.032;4.634;2023-10-19T06:06:27;98931.53;;;15.51
78859;BMP280;68210;52.032;4.634;2023-10-19T06:08:28;98937.78;;;15.51
78859;BMP280;68210;52.032;4.634;2023-10-19T06:10:29;98942.13;;;15.49
78859;BMP280;68210;52.032;4.634;2023-10-19T06:12:30;98942.63;;;15.44
78859;BMP280;68210;52.032;4.634;2023-10-19T06:14:31;98948.44;;;15.46
78859;BMP280;68210;52.032;4.634;2023-10-19T06:16:31;98938.00;;;15.41
78859;BMP280;68210;52.032;4.634;2023-10-19T06:18:32;98940.25;;;15.46
78859;BMP280;68210;52.032;4.634;2023-10-19T06:20:32;98941.66;;;15.35
78859;BMP280;68210;52.032;4.634;2023-10-19T06:22:36;98945.50;;;15.37
78859;BMP280;68210;52.032;4.634;2023-10-19T06:24:37;98944.13;;;15.29
78859;BMP280;68210;52.032;4.634;2023-10-19T06:26:37;98955.91;;;15.26
78859;BMP280;68210;52.032;4.634;2023-10-19T06:28:39;98968.03;;;15.25
78859;BMP280;68210;52.032;4.634;2023-10-19T06:30:40;98959.13;;;15.21
78859;BMP280;68210;52.032;4.634;2023-10-19T06:32:40;98971.41;;;15.29
78859;BMP280;68210;52.032;4.634;2023-10-19T06:34:43;98954.00;;;15.23
78859;BMP280;68210;52.032;4.634;2023-10-19T06:36:44;98947.88;;;15.35
78859;BMP280;68210;52.032;4.634;2023-10-19T06:38:45;98959.66;;;15.32
78859;BMP280;68210;52.032;4.634;2023-10-19T06:40:47;98959.00;;;15.44
78859;BMP280;68210;52.032;4.634;2023-10-19T06:42:48;98962.91;;;15.43
78859;BMP280;68210;52.032;4.634;2023-10-19T06:44:49;98966.34;;;15.47
78859;BMP280;68210;52.032;4.634;2023-10-19T06:46:53;98969.75;;;15.51
78859;BMP280;68210;52.032;4.634;2023-10-19T06:48:53;98968.66;;;15.64
78859;BMP280;68210;52.032;4.634;2023-10-19T06:50:57;98968.22;;;15.66
78859;BMP280;68210;52.032;4.634;2023-10-19T06:52:57;98971.31;;;15.68
78859;BMP280;68210;52.032;4.634;2023-10-19T06:54:57;98972.00;;;15.72
78859;BMP280;68210;52.032;4.634;2023-10-19T06:56:58;98970.09;;;15.69
78859;BMP280;68210;52.032;4.634;2023-10-19T06:58:58;98975.56;;;15.69
78859;BMP280;68210;52.032;4.634;2023-10-19T07:00:59;98963.28;;;15.61
78859;BMP280;68210;52.032;4.634;2023-10-19T07:03:08;98979.81;;;15.54
78859;BMP280;68210;52.032;4.634;2023-10-19T07:05:10;98975.41;;;15.60
78859;BMP280;68210;52.032;4.634;2023-10-19T07:07:11;98978.13;;;15.60
78859;BMP280;68210;52.032;4.634;2023-10-19T07:09:12;98977.44;;;15.56
78859;BMP280;68210;52.032;4.634;2023-10-19T07:11:12;98983.66;;;15.56
78859;BMP280;68210;52.032;4.634;2023-10-19T07:13:13;98981.91;;;15.66
78859;BMP280;68210;52.032;4.634;2023-10-19T07:15:14;98982.56;;;15.70
78859;BMP280;68210;52.032;4.634;2023-10-19T07:17:14;98979.31;;;15.75
78859;BMP280;68210;52.032;4.634;2023-10-19T07:19:15;98984.28;;;15.64
78859;BMP280;68210;52.032;4.634;2023-10-19T07:21:15;98980.88;;;15.76
78859;BMP280;68210;52.032;4.634;2023-10-19T07:23:17;98985.13;;;15.61
78859;BMP280;68210;52.032;4.634;2023-10-19T07:25:26;98984.63;;;15.66
78859;BMP280;68210;52.032;4.634;2023-10-19T07:27:26;98992.28;;;15.55
78859;BMP280;68210;52.032;4.634;2023-10-19T07:29:28;98986.84;;;15.71
78859;BMP280;68210;52.032;4.634;2023-10-19T07:31:29;98981.03;;;15.69
78859;BMP280;68210;52.032;4.634;2023-10-19T07:33:29;98975.72;;;15.62
78859;BMP280;68210;52.032;4.634;2023-10-19T07:35:34;98983.59;;;15.60
78859;BMP280;68210;52.032;4.634;2023-10-19T07:37:35;98987.25;;;15.69
78859;BMP280;68210;52.032;4.634;2023-10-19T07:39:35;98988.47;;;15.68
78859;BMP280;68210;52.032;4.634;2023-10-19T07:41:40;98986.34;;;15.76
78859;BMP280;68210;52.032;4.634;2023-10-19T07:43:40;98984.44;;;15.73
78859;BMP280;68210;52.032;4.634;2023-10-19T07:45:41;98995.09;;;15.67
78859;BMP280;68210;52.032;4.634;2023-10-19T07:47:43;98989.06;;;15.60
78859;BMP280;68210;52.032;4.634;2023-10-19T07:49:44;98986.84;;;15.55
78859;BMP280;68210;52.032;4.634;2023-10-19T07:51:46;98987.25;;;15.69
78859;BMP280;68210;52.032;4.634;2023-10-19T07:53:47;98987.59;;;15.55
78859;BMP280;68210;52.032;4.634;2023-10-19T07:55:47;99000.50;;;15.71
78859;BMP280;68210;52.032;4.634;2023-10-19T07:57:49;98994.72;;;15.84
78859;BMP280;68210;52.032;4.634;2023-10-19T07:59:50;98999.22;;;15.75
78859;BMP280;68210;52.032;4.634;2023-10-19T08:01:50;99000.91;;;15.69
78859;BMP280;68210;52.032;4.634;2023-10-19T08:03:51;98996.47;;;15.75
78859;BMP280;68210;52.032;4.634;2023-10-19T08:05:52;98993.16;;;15.83
78859;BMP280;68210;52.032;4.634;2023-10-19T08:07:52;98995.38;;;15.88
78859;BMP280;68210;52.032;4.634;2023-10-19T08:09:53;98999.47;;;15.80
78859;BMP280;68210;52.032;4.634;2023-10-19T08:11:53;98993.50;;;15.70
78859;BMP280;68210;52.032;4.634;2023-10-19T08:13:55;98980.69;;;15.82
78859;BMP280;68210;52.032;4.634;2023-10-19T08:15:55;98984.44;;;15.88
78859;BMP280;68210;52.032;4.634;2023-10-19T08:17:56;98993.09;;;15.87
78859;BMP280;68210;52.032;4.634;2023-10-19T08:19:56;98991.19;;;15.68
78859;BMP280;68210;52.032;4.634;2023-10-19T08:21:57;98983.06;;;15.80
78859;BMP280;68210;52.032;4.634;2023-10-19T08:23:57;98979.50;;;15.83
78859;BMP280;68210;52.032;4.634;2023-10-19T08:25:58;98981.38;;;15.71
78859;BMP280;68210;52.032;4.634;2023-10-19T08:27:58;98989.06;;;15.76
78859;BMP280;68210;52.032;4.634;2023-10-19T08:29:58;98976.75;;;15.83
78859;BMP280;68210;52.032;4.634;2023-10-19T08:31:59;98980.59;;;15.86
78859;BMP280;68210;52.032;4.634;2023-10-19T08:33:59;98972.84;;;15.84
78859;BMP280;68210;52.032;4.634;2023-10-19T08:36:00;98984.78;;;16.06
78859;BMP280;68210;52.032;4.634;2023-10-19T08:38:00;98980.00;;;16.10
78859;BMP280;68210;52.032;4.634;2023-10-19T08:40:00;98982.72;;;16.26
78859;BMP280;68210;52.032;4.634;2023-10-19T08:42:05;98973.53;;;16.20
78859;BMP280;68210;52.032;4.634;2023-10-19T08:44:07;98983.50;;;16.26
78859;BMP280;68210;52.032;4.634;2023-10-19T08:46:17;98981.69;;;16.36
78859;BMP280;68210;52.032;4.634;2023-10-19T08:48:17;98982.72;;;16.70
78859;BMP280;68210;52.032;4.634;2023-10-19T08:50:19;98973.56;;;17.16
78859;BMP280;68210;52.032;4.634;2023-10-19T08:52:24;98980.78;;;17.23
78859;BMP280;68210;52.032;4.634;2023-10-19T08:54:26;98982.31;;;17.24
78859;BMP280;68210;52.032;4.634;2023-10-19T08:56:27;98980.69;;;16.98
78859;BMP280;68210;52.032;4.634;2023-10-19T08:58:27;98980.38;;;17.49
78859;BMP280;68210;52.032;4.634;2023-10-19T09:00:28;98979.41;;;17.55
78859;BMP280;68210;52.032;4.634;2023-10-19T09:02:34;98981.53;;;17.97
78859;BMP280;68210;52.032;4.634;2023-10-19T09:04:41;98970.47;;;18.46
78859;BMP280;68210;52.032;4.634;2023-10-19T09:06:42;98973.69;;;18.66
78859;BMP280;68210;52.032;4.634;2023-10-19T09:08:47;98958.09;;;18.42
78859;BMP280;68210;52.032;4.634;2023-10-19T09:10:49;98977.38;;;18.05
78859;BMP280;68210;52.032;4.634;2023-10-19T09:13:02;98964.09;;;18.16
78859;BMP280;68210;52.032;4.634;2023-10-19T09:15:03;98956.31;;;18.02
78859;BMP280;68210;52.032;4.634;2023-10-19T09:17:05;98963.59;;;17.71
78859;BMP280;68210;52.032;4.634;2023-10-19T09:22:02;98964.69;;;17.74
78859;BMP280;68210;52.032;4.634;2023-10-19T09:24:29;98965.69;;;17.67
78859;BMP280;68210;52.032;4.634;2023-10-19T09:29:12;98955.91;;;17.79
78859;BMP280;68210;52.032;4.634;2023-10-19T09:31:17;98961.16;;;17.73
78859;BMP280;68210;52.032;4.634;2023-10-19T09:33:19;98952.19;;;17.36
78859;BMP280;68210;52.032;4.634;2023-10-19T09:35:23;98945.84;;;17.51
78859;BMP280;68210;52.032;4.634;2023-10-19T09:37:28;98955.72;;;17.49
78859;BMP280;68210;52.032;4.634;2023-10-19T09:39:30;98943.22;;;17.48
78859;BMP280;68210;52.032;4.634;2023-10-19T09:41:37;98946.94;;;17.41
78859;BMP280;68210;52.032;4.634;2023-10-19T09:43:46;98950.25;;;17.36
78859;BMP280;68210;52.032;4.634;2023-10-19T09:45:48;98943.00;;;17.30
78859;BMP280;68210;52.032;4.634;2023-10-19T09:47:52;98937.97;;;17.41
78859;BMP280;68210;52.032;4.634;2023-10-19T09:49:54;98934.22;;;17.60
78859;BMP280;68210;52.032;4.634;2023-10-19T09:51:55;98937.50;;;17.79
78859;BMP280;68210;52.032;4.634;2023-10-19T09:54:17;98936.69;;;17.91
78859;BMP280;68210;52.032;4.634;2023-10-19T09:56:24;98934.56;;;17.74
78859;BMP280;68210;52.032;4.634;2023-10-19T09:58:35;98924.72;;;17.97
78859;BMP280;68210;52.032;4.634;2023-10-19T10:00:37;98944.56;;;18.01
78859;BMP280;68210;52.032;4.634;2023-10-19T10:02:42;98944.94;;;17.91
78859;BMP280;68210;52.032;4.634;2023-10-19T10:04:43;98938.00;;;17.99
78859;BMP280;68210;52.032;4.634;2023-10-19T10:08:50;98938.88;;;17.96
78859;BMP280;68210;52.032;4.634;2023-10-19T10:10:51;98925.81;;;18.00
78859;BMP280;68210;52.032;4.634;2023-10-19T10:12:51;98931.22;;;18.03
78859;BMP280;68210;52.032;4.634;2023-10-19T10:15:02;98935.69;;;18.10
78859;BMP280;68210;52.032;4.634;2023-10-19T10:17:06;98929.78;;;17.99
78859;BMP280;68210;52.032;4.634;2023-10-19T10:19:09;98930.75;;;18.17
78859;BMP280;68210;52.032;4.634;2023-10-19T10:21:12;98938.03;;;18.32
78859;BMP280;68210;52.032;4.634;2023-10-19T10:23:23;98924.50;;;18.38
78859;BMP280;68210;52.032;4.634;2023-10-19T10:25:34;98925.41;;;18.56
78859;BMP280;68210;52.032;4.634;2023-10-19T10:27:51;98915.59;;;18.46
78859;BMP280;68210;52.032;4.634;2023-10-19T10:29:58;98909.47;;;18.42
78859;BMP280;68210;52.032;4.634;2023-10-19T10:31:59;98915.84;;;18.39
78859;BMP280;68210;52.032;4.634;2023-10-19T10:34:00;98929.09;;;18.20
78859;BMP280;68210;52.032;4.634;2023-10-19T10:36:00;98936.63;;;18.28
78859;BMP280;68210;52.032;4.634;2023-10-19T10:38:01;98932.22;;;18.30
78859;BMP280;68210;52.032;4.634;2023-10-19T10:40:01;98923.69;;;18.28
78859;BMP280;68210;52.032;4.634;2023-10-19T10:42:04;98930.44;;;18.36
78859;BMP280;68210;52.032;4.634;2023-10-19T10:44:05;98933.25;;;18.45
78859;BMP280;68210;52.032;4.634;2023-10-19T10:46:06;98924.47;;;18.50
78859;BMP280;68210;52.032;4.634;2023-10-19T10:48:15;98924.50;;;18.38
78859;BMP280;68210;52.032;4.634;2023-10-19T10:50:19;98930.38;;;18.27
78859;BMP280;68210;52.032;4.634;2023-10-19T10:52:36;98923.34;;;18.26
78859;BMP280;68210;52.032;4.634;2023-10-19T10:54:37;98934.97;;;18.30
78859;BMP280;68210;52.032;4.634;2023-10-19T10:56:40;98925.75;;;18.25
78859;BMP280;68210;52.032;4.634;2023-10-19T10:58:40;98920.03;;;18.31
78859;BMP280;68210;52.032;4.634;2023-10-19T11:00:45;98924.16;;;18.15
78859;BMP280;68210;52.032;4.634;2023-10-19T11:02:47;98923.63;;;18.07
78859;BMP280;68210;52.032;4.634;2023-10-19T11:04:58;98928.50;;;18.25
78859;BMP280;68210;52.032;4.634;2023-10-19T11:07:00;98913.59;;;18.26
78859;BMP280;68210;52.032;4.634;2023-10-19T11:09:09;98918.81;;;18.32
78859;BMP280;68210;52.032;4.634;2023-10-19T11:11:10;98921.47;;;18.36
78859;BMP280;68210;52.032;4.634;2023-10-19T11:13:17;98913.59;;;18.26
78859;BMP280;68210;52.032;4.634;2023-10-19T11:15:21;98920.97;;;18.16
78859;BMP280;68210;52.032;4.634;2023-10-19T11:17:21;98916.47;;;18.22
78859;BMP280;68210;52.032;4.634;2023-10-19T11:19:49;98926.09;;;18.26
78859;BMP280;68210;52.032;4.634;2023-10-19T11:21:54;98921.28;;;18.18
78859;BMP280;68210;52.032;4.634;2023-10-19T11:23:54;98919.50;;;18.24
78859;BMP280;68210;52.032;4.634;2023-10-19T11:25:59;98916.97;;;18.29
78859;BMP280;68210;52.032;4.634;2023-10-19T11:28:01;98901.78;;;18.37
78859;BMP280;68210;52.032;4.634;2023-10-19T11:30:01;98901.03;;;18.37
78859;BMP280;68210;52.032;4.634;2023-10-19T11:32:07;98907.03;;;18.23
78859;BMP280;68210;52.032;4.634;2023-10-19T11:34:07;98892.25;;;18.42
78859;BMP280;68210;52.032;4.634;2023-10-19T11:36:09;98890.59;;;18.44
78859;BMP280;68210;52.032;4.634;2023-10-19T11:38:12;98887.13;;;18.31
78859;BMP280;68210;52.032;4.634;2023-10-19T11:40:12;98876.38;;;18.25
78859;BMP280;68210;52.032;4.634;2023-10-19T11:42:13;98882.16;;;18.18
78859;BMP280;68210;52.032;4.634;2023-10-19T11:44:13;98892.38;;;18.05
78859;BMP280;68210;52.032;4.634;2023-10-19T11:46:14;98890.59;;;18.11
78859;BMP280;68210;52.032;4.634;2023-10-19T11:48:15;98887.88;;;18.11
78859;BMP280;68210;52.032;4.634;2023-10-19T11:50:16;98872.31;;;18.29
78859;BMP280;68210;52.032;4.634;2023-10-19T11:52:18;98869.25;;;18.27
78859;BMP280;68210;52.032;4.634;2023-10-19T11:54:19;98864.78;;;18.21
78859;BMP280;68210;52.032;4.634;2023-10-19T11:56:20;98872.78;;;18.27
78859;BMP280;68210;52.032;4.634;2023-10-19T11:58:21;98859.69;;;18.31